This is the latest recevied weather packets stored in our database for station/object KE5YIM-13. If no packets are shown the sender has not sent any weather packets the latest 1 day(s).
| Time | Temp. | Humidity | Pressure | Rain* | Wind** | Luminosity | Snow |
|---|---|---|---|---|---|---|---|
| 1778000669 | 21.67° C | 62% | 1011.2 hPa | 0 mm | 1.79 m/s, 267° | 813 W/m² | - |
| 1778000364 | 21.67° C | 62% | 1011.2 hPa | 0 mm | 1.34 m/s, 174° | 814 W/m² | - |
| 1778000060 | 21.67° C | 61% | 1011.2 hPa | 0 mm | 2.24 m/s, 154° | 815 W/m² | - |
| 1777999756 | 21.67° C | 63% | 1011 hPa | 0 mm | 1.34 m/s, 183° | 817 W/m² | - |
| 1777999453 | 21.67° C | 65% | 1011.1 hPa | 0 mm | 0.45 m/s, 113° | 815 W/m² | - |
| 1777999151 | 21.67° C | 62% | 1011.4 hPa | 0 mm | 1.79 m/s, 271° | 809 W/m² | - |
| 1777998850 | 21.11° C | 64% | 1011.4 hPa | 0 mm | 1.79 m/s, 247° | 808 W/m² | - |
| 1777998548 | 21.67° C | 64% | 1011.4 hPa | 0 mm | 2.24 m/s, 95° | 805 W/m² | - |
| 1777998243 | 21.67° C | 64% | 1011.8 hPa | 0 mm | 1.79 m/s, 119° | 806 W/m² | - |
| 1777997940 | 21.67° C | 63% | 1011.8 hPa | 0 mm | 0.89 m/s, 92° | 802 W/m² | - |
| 1777997637 | 20.56° C | 65% | 1011.9 hPa | 0 mm | 0.89 m/s, 163° | 800 W/m² | - |
| 1777997334 | 20.56° C | 64% | 1011.9 hPa | 0 mm | 3.13 m/s, 143° | 793 W/m² | - |
| 1777997033 | 21.11° C | 65% | 1011.8 hPa | 0 mm | 1.79 m/s, 109° | 788 W/m² | - |
| 1777996729 | 21.11° C | 64% | 1011.8 hPa | 0 mm | 2.68 m/s, 128° | 787 W/m² | - |
| 1777996425 | 21.11° C | 64% | 1011.9 hPa | 0 mm | 0.89 m/s, 177° | 787 W/m² | - |
| 1777996122 | 21.11° C | 63% | 1011.9 hPa | 0 mm | 2.24 m/s, 108° | 780 W/m² | - |
| 1777995818 | 21.11° C | 64% | 1012 hPa | 0 mm | 2.24 m/s, 137° | 772 W/m² | - |
| 1777995514 | 21.11° C | 67% | 1012.1 hPa | 0 mm | 1.34 m/s, 144° | 768 W/m² | - |
| 1777995211 | 20.56° C | 65% | 1012.2 hPa | 0 mm | 0.89 m/s, 144° | 761 W/m² | - |
| 1777994908 | 20.56° C | 66% | 1012.3 hPa | 0 mm | 1.79 m/s, 131° | 751 W/m² | - |
| 1777994606 | 20.56° C | 65% | 1012.3 hPa | 0 mm | 1.79 m/s, 131° | 745 W/m² | - |
| 1777994305 | 20.56° C | 65% | 1012.4 hPa | 0 mm | 2.68 m/s, 194° | 740 W/m² | - |
| 1777994003 | 20.56° C | 67% | 1012.5 hPa | 0 mm | 0.45 m/s, 102° | 729 W/m² | - |
| 1777993699 | 20.56° C | 64% | 1012.4 hPa | 0 mm | 1.79 m/s, 116° | 723 W/m² | - |
| 1777993396 | 20° C | 68% | 1012.5 hPa | 0 mm | 0.89 m/s, 272° | 717 W/m² | - |
* Rain latest hour (hover to see other rain measurements)
** Current wind speed in m/s (hover to see current wind gust speed)